createdAt,value
2022-08-05T00:01:21.066Z,1003.449
2022-08-05T00:06:22.243Z,1003.444
2022-08-05T00:11:20.401Z,1003.351
2022-08-05T00:16:19.788Z,1003.304
2022-08-05T00:21:22.390Z,1003.254
2022-08-05T00:26:25.141Z,1003.303
2022-08-05T00:31:41.698Z,1003.375
2022-08-05T00:37:09.398Z,1003.36
2022-08-05T00:41:46.941Z,1003.4
2022-08-05T00:46:36.989Z,1003.416
2022-08-05T00:51:51.360Z,1003.743
2022-08-05T00:56:40.876Z,1003.672
2022-08-05T01:06:46.764Z,1003.595
2022-08-05T01:11:48.659Z,1003.786
2022-08-05T01:16:52.242Z,1003.801
2022-08-05T01:21:53.972Z,1003.749
2022-08-05T01:26:56.570Z,1003.854
2022-08-05T01:31:59.025Z,1003.848
2022-08-05T01:42:04.277Z,1003.864
2022-08-05T01:47:06.984Z,1003.8
2022-08-05T01:52:12.478Z,1003.764
2022-08-05T01:58:09.025Z,1003.673
2022-08-05T02:02:15.903Z,1003.612
2022-08-05T02:07:21.743Z,1003.669
2022-08-05T02:12:22.548Z,1003.615
2022-08-05T02:17:30.087Z,1003.587
2022-08-05T02:22:31.137Z,1003.601
2022-08-05T02:27:58.801Z,1003.637
2022-08-05T02:37:39.265Z,1003.738
2022-08-05T02:42:41.911Z,1003.694
2022-08-05T02:52:47.373Z,1003.635
2022-08-05T02:58:08.870Z,1003.671
2022-08-05T03:03:10.966Z,1003.617
2022-08-05T03:08:13.849Z,1003.513
2022-08-05T03:13:17.079Z,1003.527
2022-08-05T03:18:19.183Z,1003.412
2022-08-05T03:23:24.099Z,1003.398
2022-08-05T03:28:24.375Z,1003.32
2022-08-05T03:33:32.309Z,1003.358
2022-08-05T03:38:33.035Z,1003.29
2022-08-05T03:43:59.346Z,1003.407
2022-08-05T03:48:36.696Z,1003.465
2022-08-05T03:54:58.773Z,1003.61
2022-08-05T03:58:41.305Z,1003.645
2022-08-05T04:04:09.564Z,1003.645
2022-08-05T04:08:46.688Z,1003.623
2022-08-05T04:13:53.266Z,1003.575
2022-08-05T04:18:54.092Z,1003.561
2022-08-05T04:23:57.403Z,1003.598
2022-08-05T04:28:57.995Z,1003.7
2022-08-05T04:34:19.442Z,1003.777
2022-08-05T04:39:03.371Z,1003.714
2022-08-05T04:44:09.166Z,1003.682
2022-08-05T04:54:11.940Z,1003.558
2022-08-05T04:59:22.524Z,1003.674
2022-08-05T05:04:16.809Z,1003.816
2022-08-05T05:09:19.606Z,1003.797
2022-08-05T05:14:27.618Z,1003.958
2022-08-05T05:19:26.493Z,1003.963
2022-08-05T05:29:41.065Z,1004.646
2022-08-05T05:34:36.348Z,1004.642
2022-08-05T05:39:39.131Z,1004.488
2022-08-05T05:49:44.570Z,1004.662
2022-08-05T05:54:50.016Z,1004.994
2022-08-05T05:59:50.255Z,1005.22
2022-08-05T06:04:52.877Z,1005.221
2022-08-05T06:10:00.359Z,1005.349
2022-08-05T06:25:24.202Z,1005.532
2022-08-05T06:30:16.765Z,1005.462
2022-08-05T06:35:15.315Z,1005.332
2022-08-05T06:40:10.801Z,1005.392
2022-08-05T06:45:20.994Z,1005.385
2022-08-05T06:50:17.165Z,1005.267
2022-08-05T06:55:19.109Z,1005.295
2022-08-05T07:00:25.478Z,1005.266
2022-08-05T07:10:32.584Z,1005.46
2022-08-05T07:15:34.258Z,1005.712
2022-08-05T07:20:37.256Z,1006.014
2022-08-05T07:25:54.548Z,1006.034
2022-08-05T07:30:41.387Z,1005.9
2022-08-05T07:35:56.597Z,1005.725
2022-08-05T07:40:49.574Z,1005.694
2022-08-05T07:45:56.927Z,1005.719
2022-08-05T07:50:54.936Z,1005.802
2022-08-05T07:56:05.934Z,1005.645
2022-08-05T08:06:58.136Z,1005.523
2022-08-05T08:12:06.366Z,1005.472
2022-08-05T08:17:03.430Z,1005.295
2022-08-05T08:22:05.758Z,1005.164
2022-08-05T08:27:08.686Z,1005.393
2022-08-05T08:37:14.029Z,1005.887
2022-08-05T08:42:32.665Z,1005.812
2022-08-05T08:47:21.605Z,1006.025
2022-08-05T08:52:21.987Z,1006.141
2022-08-05T08:57:24.578Z,1006.205
2022-08-05T09:02:27.394Z,1006.348
2022-08-05T09:07:39.659Z,1006.346
2022-08-05T09:12:36.105Z,1006.287
2022-08-05T09:17:40.346Z,1006.24
2022-08-05T09:22:41.902Z,1006.341
2022-08-05T09:28:03.362Z,1006.423
2022-08-05T09:32:47.173Z,1006.255
2022-08-05T09:38:11.831Z,1006.458
2022-08-05T09:47:56.745Z,1006.091
2022-08-05T09:52:58.059Z,1006.025
2022-08-05T09:58:00.777Z,1005.767
2022-08-05T10:03:03.141Z,1005.317
2022-08-05T10:13:09.773Z,1005.583
2022-08-05T10:18:10.997Z,1006.077
2022-08-05T10:23:22.069Z,1005.877
2022-08-05T10:28:17.434Z,1006.225
2022-08-05T10:33:19.324Z,1006.402
2022-08-05T10:38:21.904Z,1006.465
2022-08-05T10:43:24.502Z,1006.377
2022-08-05T10:48:29.310Z,1006.218
2022-08-05T10:53:29.902Z,1006.293
2022-08-05T10:58:36.137Z,1006.21
2022-08-05T11:08:39.323Z,1006.114
2022-08-05T11:13:54.691Z,1006.147
2022-08-05T11:18:47.034Z,1006.275
2022-08-05T11:24:03.488Z,1006.237
2022-08-05T11:28:49.838Z,1006.268
2022-08-05T11:34:14.695Z,1006.338
2022-08-05T11:39:13.519Z,1006.478
2022-08-05T11:44:21.694Z,1006.34
2022-08-05T11:49:18.296Z,1006.383
2022-08-05T11:54:20.776Z,1006.466
2022-08-05T11:59:23.610Z,1006.416
2022-08-05T12:04:26.720Z,1006.308
2022-08-05T12:09:38.741Z,1006.304
2022-08-05T12:14:31.951Z,1006.297
2022-08-05T12:20:17.543Z,1006.4
2022-08-05T12:24:37.525Z,1006.399
2022-08-05T12:29:40.141Z,1006.377
2022-08-05T12:34:42.920Z,1006.362
2022-08-05T12:39:48.481Z,1006.389
2022-08-05T12:44:48.492Z,1006.456
2022-08-05T12:50:02.910Z,1006.551
2022-08-05T12:54:53.790Z,1006.5
2022-08-05T13:00:08.613Z,1006.446
2022-08-05T13:05:05.244Z,1006.361
2022-08-05T13:10:07.826Z,1006.512
2022-08-05T13:15:13.730Z,1006.532
2022-08-05T13:20:13.190Z,1006.634
2022-08-05T13:25:18.923Z,1006.618
2022-08-05T13:30:33.304Z,1006.57
2022-08-05T13:35:22.053Z,1006.605
2022-08-05T13:45:30.975Z,1006.565
2022-08-05T13:50:30.023Z,1006.575
2022-08-05T13:55:40.688Z,1006.554
2022-08-05T14:00:35.320Z,1006.508
2022-08-05T14:05:48.675Z,1006.532
2022-08-05T14:10:41.092Z,1006.495
2022-08-05T14:16:04.096Z,1006.542
2022-08-05T14:20:46.790Z,1006.562
2022-08-05T14:30:51.965Z,1006.732
2022-08-05T14:35:54.839Z,1006.831
2022-08-05T14:40:56.839Z,1006.865
2022-08-05T14:51:30.726Z,1006.973
2022-08-05T14:56:31.939Z,1006.839
2022-08-05T15:01:37.115Z,1006.855
2022-08-05T15:06:37.313Z,1006.832
2022-08-05T15:11:52.183Z,1006.855
2022-08-05T15:21:44.706Z,1006.956
2022-08-05T15:26:47.304Z,1007.098
2022-08-05T15:31:52.732Z,1007.133
2022-08-05T15:36:52.502Z,1007.112
2022-08-05T15:41:56.576Z,1007.035
2022-08-05T15:47:00.493Z,1007.197
2022-08-05T15:52:10.433Z,1007.218
2022-08-05T15:57:07.504Z,1007.309
2022-08-05T16:02:09.333Z,1007.39
2022-08-05T16:12:14.437Z,1007.392
2022-08-05T16:17:17.032Z,1007.541
2022-08-05T16:22:24.213Z,1007.655
2022-08-05T16:32:28.871Z,1007.811
2022-08-05T16:38:01.689Z,1007.979
2022-08-05T16:52:35.287Z,1008.247
2022-08-05T16:57:48.625Z,1008.35
2022-08-05T17:02:40.584Z,1008.332
2022-08-05T17:17:54.944Z,1008.91
2022-08-05T17:22:55.554Z,1009.128
2022-08-05T17:27:56.028Z,1009.338
2022-08-05T17:38:04.804Z,1009.163
2022-08-05T17:43:10.149Z,1009.326
2022-08-05T18:08:22.345Z,1009.769
2022-08-05T18:19:07.317Z,1009.832
2022-08-05T18:24:10.400Z,1010.021
2022-08-05T18:29:13.031Z,1010.121
2022-08-05T18:34:15.867Z,1010.206
2022-08-05T18:39:22.592Z,1010.232
2022-08-05T18:49:30.248Z,1010.282
2022-08-05T18:59:42.389Z,1010.435
2022-08-05T19:04:35.723Z,1010.6
2022-08-05T19:09:41.075Z,1010.772
2022-08-05T19:15:00.134Z,1010.707
2022-08-05T19:19:48.576Z,1010.842
2022-08-05T19:24:54.087Z,1010.879
2022-08-05T19:29:52.058Z,1010.958
2022-08-05T19:34:55.844Z,1010.941
2022-08-05T19:39:57.502Z,1011.058
2022-08-05T19:45:00.269Z,1011.16
2022-08-05T19:50:02.609Z,1011.188
2022-08-05T19:55:06.670Z,1011.296
2022-08-05T20:00:07.782Z,1011.272
2022-08-05T20:05:16.350Z,1011.306
2022-08-05T20:10:14.077Z,1011.388
2022-08-05T20:15:15.851Z,1011.394
2022-08-05T20:25:21.424Z,1011.523
2022-08-05T20:30:24.749Z,1011.553
2022-08-05T20:35:27.511Z,1011.723
2022-08-05T20:40:30.121Z,1011.855
2022-08-05T20:45:47.803Z,1011.981
2022-08-05T20:50:38.668Z,1012.1
2022-08-05T20:55:55.898Z,1012.119
2022-08-05T21:00:49.688Z,1012.278
2022-08-05T21:05:54.181Z,1012.357
2022-08-05T21:20:58.198Z,1012.583
2022-08-05T21:26:01.042Z,1012.575
2022-08-05T21:31:03.835Z,1012.596
2022-08-05T21:36:06.434Z,1012.582
2022-08-05T21:41:08.988Z,1012.644
2022-08-05T21:46:11.823Z,1012.588
2022-08-05T21:51:25.425Z,1012.559
2022-08-05T21:56:17.216Z,1012.646
2022-08-05T22:11:34.587Z,1012.706
2022-08-05T22:16:42.235Z,1012.624
2022-08-05T22:21:35.167Z,1012.847
2022-08-05T22:26:37.900Z,1012.932
2022-08-05T22:31:44.690Z,1013.011
2022-08-05T22:36:43.144Z,1013.025
2022-08-05T22:42:05.192Z,1013.068
2022-08-05T22:46:48.430Z,1013.102
2022-08-05T22:52:02.905Z,1013.166
2022-08-05T22:56:53.710Z,1013.184
2022-08-05T23:02:05.350Z,1013.206
2022-08-05T23:06:59.001Z,1013.341
2022-08-05T23:12:01.645Z,1013.277
2022-08-05T23:17:04.338Z,1013.256
2022-08-05T23:22:09.906Z,1013.31
2022-08-05T23:27:12.494Z,1013.242
2022-08-05T23:32:15.126Z,1013.266
2022-08-05T23:37:17.659Z,1013.363
